sensor_id;sensor_type;location;lat;lon;timestamp;P1;durP1;ratioP1;P2;durP2;ratioP2
29550;SDS011;16488;52.396;10.696;2022-07-09T00:01:24;8.47;;;4.17;;
29550;SDS011;16488;52.396;10.696;2022-07-09T00:03:49;8.02;;;4.07;;
29550;SDS011;16488;52.396;10.696;2022-07-09T00:06:16;10.57;;;4.18;;
29550;SDS011;16488;52.396;10.696;2022-07-09T00:08:42;10.20;;;3.63;;
29550;SDS011;16488;52.396;10.696;2022-07-09T00:11:08;6.50;;;3.60;;
29550;SDS011;16488;52.396;10.696;2022-07-09T00:13:34;8.77;;;3.90;;
29550;SDS011;16488;52.396;10.696;2022-07-09T00:15:59;6.57;;;3.77;;
29550;SDS011;16488;52.396;10.696;2022-07-09T00:18:25;11.60;;;3.40;;
29550;SDS011;16488;52.396;10.696;2022-07-09T00:20:50;7.03;;;3.73;;
29550;SDS011;16488;52.396;10.696;2022-07-09T00:23:16;7.23;;;4.03;;
29550;SDS011;16488;52.396;10.696;2022-07-09T00:25:41;7.47;;;3.83;;
29550;SDS011;16488;52.396;10.696;2022-07-09T00:28:07;9.30;;;3.67;;
29550;SDS011;16488;52.396;10.696;2022-07-09T00:30:32;10.73;;;3.73;;
29550;SDS011;16488;52.396;10.696;2022-07-09T00:32:58;12.40;;;4.25;;
29550;SDS011;16488;52.396;10.696;2022-07-09T00:35:23;7.07;;;3.90;;
29550;SDS011;16488;52.396;10.696;2022-07-09T00:37:49;9.80;;;3.65;;
29550;SDS011;16488;52.396;10.696;2022-07-09T00:40:15;15.00;;;3.67;;
29550;SDS011;16488;52.396;10.696;2022-07-09T00:42:40;9.83;;;4.03;;
29550;SDS011;16488;52.396;10.696;2022-07-09T00:45:06;6.63;;;3.27;;
29550;SDS011;16488;52.396;10.696;2022-07-09T00:47:32;8.93;;;4.10;;
29550;SDS011;16488;52.396;10.696;2022-07-09T00:49:57;9.20;;;4.53;;
29550;SDS011;16488;52.396;10.696;2022-07-09T00:52:23;10.80;;;3.92;;
29550;SDS011;16488;52.396;10.696;2022-07-09T00:54:49;9.20;;;3.92;;
29550;SDS011;16488;52.396;10.696;2022-07-09T00:57:15;9.10;;;4.18;;
29550;SDS011;16488;52.396;10.696;2022-07-09T00:59:44;17.85;;;4.18;;
29550;SDS011;16488;52.396;10.696;2022-07-09T01:02:09;15.05;;;4.55;;
29550;SDS011;16488;52.396;10.696;2022-07-09T01:04:35;10.95;;;4.05;;
29550;SDS011;16488;52.396;10.696;2022-07-09T01:07:01;16.30;;;3.65;;
29550;SDS011;16488;52.396;10.696;2022-07-09T01:09:27;7.68;;;4.32;;
29550;SDS011;16488;52.396;10.696;2022-07-09T01:11:54;5.72;;;4.43;;
29550;SDS011;16488;52.396;10.696;2022-07-09T01:14:20;16.38;;;5.30;;
29550;SDS011;16488;52.396;10.696;2022-07-09T01:16:46;14.10;;;4.57;;
29550;SDS011;16488;52.396;10.696;2022-07-09T01:19:12;12.73;;;4.30;;
29550;SDS011;16488;52.396;10.696;2022-07-09T01:21:37;9.87;;;4.70;;
29550;SDS011;16488;52.396;10.696;2022-07-09T01:24:03;16.20;;;5.28;;
29550;SDS011;16488;52.396;10.696;2022-07-09T01:26:29;20.35;;;5.30;;
29550;SDS011;16488;52.396;10.696;2022-07-09T01:28:55;10.32;;;4.88;;
29550;SDS011;16488;52.396;10.696;2022-07-09T01:31:20;15.40;;;5.40;;
29550;SDS011;16488;52.396;10.696;2022-07-09T01:33:46;12.80;;;5.50;;
29550;SDS011;16488;52.396;10.696;2022-07-09T01:36:12;18.40;;;6.03;;
29550;SDS011;16488;52.396;10.696;2022-07-09T01:38:37;13.57;;;5.07;;
29550;SDS011;16488;52.396;10.696;2022-07-09T01:41:03;12.17;;;5.77;;
29550;SDS011;16488;52.396;10.696;2022-07-09T01:43:29;13.68;;;5.32;;
29550;SDS011;16488;52.396;10.696;2022-07-09T01:45:56;12.77;;;5.95;;
29550;SDS011;16488;52.396;10.696;2022-07-09T01:48:21;18.08;;;5.55;;
29550;SDS011;16488;52.396;10.696;2022-07-09T01:50:47;17.48;;;5.78;;
29550;SDS011;16488;52.396;10.696;2022-07-09T01:53:13;14.60;;;5.45;;
29550;SDS011;16488;52.396;10.696;2022-07-09T01:55:39;18.30;;;5.23;;
29550;SDS011;16488;52.396;10.696;2022-07-09T01:58:04;10.30;;;4.95;;
29550;SDS011;16488;52.396;10.696;2022-07-09T02:00:30;16.90;;;5.47;;
29550;SDS011;16488;52.396;10.696;2022-07-09T02:02:56;17.58;;;6.10;;
29550;SDS011;16488;52.396;10.696;2022-07-09T02:05:22;14.80;;;5.53;;
29550;SDS011;16488;52.396;10.696;2022-07-09T02:07:48;15.35;;;4.60;;
29550;SDS011;16488;52.396;10.696;2022-07-09T02:10:14;19.20;;;5.18;;
29550;SDS011;16488;52.396;10.696;2022-07-09T02:12:40;19.70;;;5.55;;
29550;SDS011;16488;52.396;10.696;2022-07-09T02:15:06;10.35;;;5.15;;
29550;SDS011;16488;52.396;10.696;2022-07-09T02:19:59;17.52;;;6.00;;
29550;SDS011;16488;52.396;10.696;2022-07-09T02:22:24;15.05;;;5.40;;
29550;SDS011;16488;52.396;10.696;2022-07-09T02:24:50;12.67;;;5.63;;
29550;SDS011;16488;52.396;10.696;2022-07-09T02:27:15;21.13;;;5.40;;
29550;SDS011;16488;52.396;10.696;2022-07-09T02:29:41;13.87;;;5.17;;
29550;SDS011;16488;52.396;10.696;2022-07-09T02:32:07;15.73;;;5.00;;
29550;SDS011;16488;52.396;10.696;2022-07-09T02:34:35;12.98;;;4.88;;
29550;SDS011;16488;52.396;10.696;2022-07-09T02:37:02;20.80;;;6.00;;
29550;SDS011;16488;52.396;10.696;2022-07-09T02:41:53;16.63;;;5.60;;
29550;SDS011;16488;52.396;10.696;2022-07-09T02:44:19;16.13;;;4.97;;
29550;SDS011;16488;52.396;10.696;2022-07-09T02:46:44;20.75;;;5.95;;
29550;SDS011;16488;52.396;10.696;2022-07-09T02:49:10;17.63;;;5.90;;
29550;SDS011;16488;52.396;10.696;2022-07-09T02:51:36;13.60;;;5.23;;
29550;SDS011;16488;52.396;10.696;2022-07-09T02:54:01;10.38;;;5.40;;
29550;SDS011;16488;52.396;10.696;2022-07-09T02:56:27;11.10;;;4.27;;
29550;SDS011;16488;52.396;10.696;2022-07-09T02:58:52;16.03;;;5.87;;
29550;SDS011;16488;52.396;10.696;2022-07-09T03:01:18;14.63;;;4.63;;
29550;SDS011;16488;52.396;10.696;2022-07-09T03:03:43;19.03;;;5.50;;
29550;SDS011;16488;52.396;10.696;2022-07-09T03:06:09;22.60;;;6.60;;
29550;SDS011;16488;52.396;10.696;2022-07-09T03:08:34;12.23;;;4.83;;
29550;SDS011;16488;52.396;10.696;2022-07-09T03:11:00;15.07;;;5.33;;
29550;SDS011;16488;52.396;10.696;2022-07-09T03:13:25;20.40;;;6.22;;
29550;SDS011;16488;52.396;10.696;2022-07-09T03:15:51;19.90;;;7.23;;
29550;SDS011;16488;52.396;10.696;2022-07-09T03:18:17;21.90;;;5.80;;
29550;SDS011;16488;52.396;10.696;2022-07-09T03:20:42;26.73;;;7.63;;
29550;SDS011;16488;52.396;10.696;2022-07-09T03:23:08;24.30;;;7.07;;
29550;SDS011;16488;52.396;10.696;2022-07-09T03:25:33;22.53;;;6.77;;
29550;SDS011;16488;52.396;10.696;2022-07-09T03:27:59;17.97;;;7.50;;
29550;SDS011;16488;52.396;10.696;2022-07-09T03:30:25;19.52;;;7.20;;
29550;SDS011;16488;52.396;10.696;2022-07-09T03:32:50;29.10;;;7.43;;
29550;SDS011;16488;52.396;10.696;2022-07-09T03:35:16;18.65;;;7.28;;
29550;SDS011;16488;52.396;10.696;2022-07-09T03:37:42;23.73;;;7.85;;
29550;SDS011;16488;52.396;10.696;2022-07-09T03:40:08;22.23;;;7.87;;
29550;SDS011;16488;52.396;10.696;2022-07-09T03:42:34;20.33;;;8.05;;
29550;SDS011;16488;52.396;10.696;2022-07-09T03:44:59;15.95;;;7.70;;
29550;SDS011;16488;52.396;10.696;2022-07-09T03:47:25;19.48;;;7.10;;
29550;SDS011;16488;52.396;10.696;2022-07-09T03:49:51;31.15;;;8.70;;
29550;SDS011;16488;52.396;10.696;2022-07-09T03:52:16;26.80;;;9.10;;
29550;SDS011;16488;52.396;10.696;2022-07-09T03:54:42;19.02;;;7.72;;
29550;SDS011;16488;52.396;10.696;2022-07-09T03:57:08;21.60;;;7.15;;
29550;SDS011;16488;52.396;10.696;2022-07-09T03:59:34;15.75;;;7.93;;
29550;SDS011;16488;52.396;10.696;2022-07-09T04:02:00;21.35;;;7.82;;
29550;SDS011;16488;52.396;10.696;2022-07-09T04:04:26;27.27;;;7.70;;
29550;SDS011;16488;52.396;10.696;2022-07-09T04:06:51;26.20;;;8.67;;
29550;SDS011;16488;52.396;10.696;2022-07-09T04:09:17;22.77;;;8.03;;
29550;SDS011;16488;52.396;10.696;2022-07-09T04:11:42;17.63;;;8.50;;
29550;SDS011;16488;52.396;10.696;2022-07-09T04:14:08;21.77;;;8.33;;
29550;SDS011;16488;52.396;10.696;2022-07-09T04:16:33;22.33;;;8.23;;
29550;SDS011;16488;52.396;10.696;2022-07-09T04:18:59;18.50;;;7.27;;
29550;SDS011;16488;52.396;10.696;2022-07-09T04:21:24;20.73;;;7.70;;
29550;SDS011;16488;52.396;10.696;2022-07-09T04:23:50;17.10;;;7.63;;
29550;SDS011;16488;52.396;10.696;2022-07-09T04:26:16;21.50;;;8.13;;
29550;SDS011;16488;52.396;10.696;2022-07-09T04:28:43;17.85;;;7.55;;
29550;SDS011;16488;52.396;10.696;2022-07-09T04:31:09;31.05;;;8.30;;
29550;SDS011;16488;52.396;10.696;2022-07-09T04:33:35;16.95;;;7.50;;
29550;SDS011;16488;52.396;10.696;2022-07-09T04:36:01;21.88;;;7.43;;
29550;SDS011;16488;52.396;10.696;2022-07-09T04:38:26;24.17;;;9.03;;
29550;SDS011;16488;52.396;10.696;2022-07-09T04:40:52;12.27;;;7.03;;
29550;SDS011;16488;52.396;10.696;2022-07-09T04:43:17;18.00;;;7.63;;
29550;SDS011;16488;52.396;10.696;2022-07-09T04:45:43;17.73;;;7.87;;
29550;SDS011;16488;52.396;10.696;2022-07-09T04:48:08;19.20;;;8.00;;
29550;SDS011;16488;52.396;10.696;2022-07-09T04:50:34;18.52;;;7.63;;
29550;SDS011;16488;52.396;10.696;2022-07-09T04:53:00;16.80;;;7.97;;
29550;SDS011;16488;52.396;10.696;2022-07-09T04:55:25;26.23;;;8.85;;
29550;SDS011;16488;52.396;10.696;2022-07-09T04:57:51;21.45;;;7.85;;
29550;SDS011;16488;52.396;10.696;2022-07-09T05:00:17;26.00;;;6.80;;
29550;SDS011;16488;52.396;10.696;2022-07-09T05:02:43;18.50;;;6.95;;
29550;SDS011;16488;52.396;10.696;2022-07-09T05:05:09;20.38;;;6.50;;
29550;SDS011;16488;52.396;10.696;2022-07-09T05:07:35;22.65;;;7.70;;
29550;SDS011;16488;52.396;10.696;2022-07-09T05:10:01;23.77;;;8.27;;
29550;SDS011;16488;52.396;10.696;2022-07-09T05:12:28;12.95;;;7.13;;
29550;SDS011;16488;52.396;10.696;2022-07-09T05:14:56;19.67;;;7.68;;
29550;SDS011;16488;52.396;10.696;2022-07-09T05:17:23;18.20;;;7.35;;
29550;SDS011;16488;52.396;10.696;2022-07-09T05:19:49;18.15;;;7.57;;
29550;SDS011;16488;52.396;10.696;2022-07-09T05:22:15;21.95;;;7.45;;
29550;SDS011;16488;52.396;10.696;2022-07-09T05:24:41;17.73;;;7.40;;
29550;SDS011;16488;52.396;10.696;2022-07-09T05:27:07;14.80;;;7.53;;
29550;SDS011;16488;52.396;10.696;2022-07-09T05:29:34;19.90;;;8.70;;
29550;SDS011;16488;52.396;10.696;2022-07-09T05:32:00;25.80;;;7.18;;
29550;SDS011;16488;52.396;10.696;2022-07-09T05:34:26;15.07;;;6.55;;
29550;SDS011;16488;52.396;10.696;2022-07-09T05:36:51;21.13;;;7.63;;
29550;SDS011;16488;52.396;10.696;2022-07-09T05:39:17;17.93;;;7.23;;
29550;SDS011;16488;52.396;10.696;2022-07-09T05:41:43;13.82;;;7.18;;
29550;SDS011;16488;52.396;10.696;2022-07-09T05:44:09;19.87;;;6.43;;
29550;SDS011;16488;52.396;10.696;2022-07-09T05:46:35;26.17;;;7.32;;
29550;SDS011;16488;52.396;10.696;2022-07-09T05:49:00;19.83;;;6.75;;
29550;SDS011;16488;52.396;10.696;2022-07-09T05:53:52;18.77;;;6.60;;
29550;SDS011;16488;52.396;10.696;2022-07-09T05:56:18;17.97;;;7.17;;
29550;SDS011;16488;52.396;10.696;2022-07-09T05:58:44;22.17;;;7.17;;
29550;SDS011;16488;52.396;10.696;2022-07-09T06:01:09;24.57;;;7.47;;
29550;SDS011;16488;52.396;10.696;2022-07-09T06:03:36;14.77;;;7.43;;
29550;SDS011;16488;52.396;10.696;2022-07-09T06:06:02;16.97;;;6.90;;
29550;SDS011;16488;52.396;10.696;2022-07-09T06:08:27;31.80;;;8.32;;
29550;SDS011;16488;52.396;10.696;2022-07-09T06:10:53;14.77;;;7.63;;
29550;SDS011;16488;52.396;10.696;2022-07-09T06:13:18;24.80;;;7.97;;
29550;SDS011;16488;52.396;10.696;2022-07-09T06:15:44;20.92;;;7.07;;
29550;SDS011;16488;52.396;10.696;2022-07-09T06:18:10;31.42;;;8.70;;
29550;SDS011;16488;52.396;10.696;2022-07-09T06:20:35;21.53;;;7.63;;
29550;SDS011;16488;52.396;10.696;2022-07-09T06:23:01;14.17;;;7.70;;
29550;SDS011;16488;52.396;10.696;2022-07-09T06:25:26;28.50;;;8.20;;
29550;SDS011;16488;52.396;10.696;2022-07-09T06:27:52;23.90;;;9.17;;
29550;SDS011;16488;52.396;10.696;2022-07-09T06:30:17;24.55;;;8.82;;
29550;SDS011;16488;52.396;10.696;2022-07-09T06:32:43;28.17;;;9.07;;
29550;SDS011;16488;52.396;10.696;2022-07-09T06:35:09;19.60;;;8.23;;
29550;SDS011;16488;52.396;10.696;2022-07-09T06:37:35;16.92;;;7.65;;
29550;SDS011;16488;52.396;10.696;2022-07-09T06:40:00;23.60;;;6.80;;
29550;SDS011;16488;52.396;10.696;2022-07-09T06:42:26;19.90;;;8.00;;
29550;SDS011;16488;52.396;10.696;2022-07-09T06:44:52;12.60;;;5.87;;
29550;SDS011;16488;52.396;10.696;2022-07-09T06:47:17;19.35;;;7.00;;
29550;SDS011;16488;52.396;10.696;2022-07-09T06:49:44;11.05;;;5.88;;
29550;SDS011;16488;52.396;10.696;2022-07-09T06:52:09;12.23;;;5.97;;
29550;SDS011;16488;52.396;10.696;2022-07-09T06:54:35;10.73;;;5.60;;
29550;SDS011;16488;52.396;10.696;2022-07-09T06:57:01;14.85;;;5.28;;
29550;SDS011;16488;52.396;10.696;2022-07-09T06:59:28;13.10;;;5.05;;
29550;SDS011;16488;52.396;10.696;2022-07-09T07:01:53;8.25;;;4.18;;
29550;SDS011;16488;52.396;10.696;2022-07-09T07:04:19;10.05;;;4.53;;
29550;SDS011;16488;52.396;10.696;2022-07-09T07:06:45;17.45;;;4.75;;
29550;SDS011;16488;52.396;10.696;2022-07-09T07:09:14;12.13;;;4.50;;
29550;SDS011;16488;52.396;10.696;2022-07-09T07:11:43;14.27;;;4.32;;
29550;SDS011;16488;52.396;10.696;2022-07-09T07:14:15;7.75;;;4.65;;
29550;SDS011;16488;52.396;10.696;2022-07-09T07:19:07;12.90;;;3.95;;
29550;SDS011;16488;52.396;10.696;2022-07-09T07:21:33;8.02;;;3.40;;
29550;SDS011;16488;52.396;10.696;2022-07-09T07:23:59;5.07;;;2.90;;
29550;SDS011;16488;52.396;10.696;2022-07-09T07:26:24;8.02;;;3.33;;
29550;SDS011;16488;52.396;10.696;2022-07-09T07:28:50;7.32;;;3.45;;
29550;SDS011;16488;52.396;10.696;2022-07-09T07:31:16;8.17;;;2.93;;
29550;SDS011;16488;52.396;10.696;2022-07-09T07:33:41;11.70;;;3.07;;
29550;SDS011;16488;52.396;10.696;2022-07-09T07:36:07;8.55;;;2.85;;
29550;SDS011;16488;52.396;10.696;2022-07-09T07:38:34;9.52;;;2.95;;
29550;SDS011;16488;52.396;10.696;2022-07-09T07:41:00;4.40;;;2.42;;
29550;SDS011;16488;52.396;10.696;2022-07-09T07:43:26;7.95;;;2.70;;
29550;SDS011;16488;52.396;10.696;2022-07-09T07:45:51;9.07;;;2.92;;
29550;SDS011;16488;52.396;10.696;2022-07-09T07:48:17;8.00;;;3.38;;
29550;SDS011;16488;52.396;10.696;2022-07-09T07:50:42;4.97;;;2.80;;
29550;SDS011;16488;52.396;10.696;2022-07-09T07:53:08;5.22;;;2.15;;
29550;SDS011;16488;52.396;10.696;2022-07-09T07:55:34;8.97;;;2.67;;
29550;SDS011;16488;52.396;10.696;2022-07-09T07:58:00;4.88;;;2.53;;
29550;SDS011;16488;52.396;10.696;2022-07-09T08:00:26;5.78;;;2.60;;
29550;SDS011;16488;52.396;10.696;2022-07-09T08:02:51;4.73;;;2.20;;
29550;SDS011;16488;52.396;10.696;2022-07-09T08:05:17;5.33;;;2.20;;
29550;SDS011;16488;52.396;10.696;2022-07-09T08:07:43;3.60;;;2.10;;
29550;SDS011;16488;52.396;10.696;2022-07-09T08:10:08;5.90;;;2.53;;
29550;SDS011;16488;52.396;10.696;2022-07-09T08:12:34;6.03;;;2.42;;
29550;SDS011;16488;52.396;10.696;2022-07-09T08:15:00;4.32;;;2.47;;
29550;SDS011;16488;52.396;10.696;2022-07-09T08:17:25;9.80;;;3.13;;
29550;SDS011;16488;52.396;10.696;2022-07-09T08:19:51;8.47;;;2.93;;
29550;SDS011;16488;52.396;10.696;2022-07-09T08:22:17;3.70;;;2.40;;
29550;SDS011;16488;52.396;10.696;2022-07-09T08:24:42;6.50;;;3.20;;
29550;SDS011;16488;52.396;10.696;2022-07-09T08:27:08;5.07;;;2.50;;
29550;SDS011;16488;52.396;10.696;2022-07-09T08:29:33;8.43;;;3.20;;
29550;SDS011;16488;52.396;10.696;2022-07-09T08:31:59;9.73;;;3.08;;
29550;SDS011;16488;52.396;10.696;2022-07-09T08:34:25;4.45;;;2.95;;
29550;SDS011;16488;52.396;10.696;2022-07-09T08:36:51;6.18;;;2.90;;
29550;SDS011;16488;52.396;10.696;2022-07-09T08:39:16;4.97;;;2.70;;
29550;SDS011;16488;52.396;10.696;2022-07-09T08:41:42;8.95;;;3.00;;
29550;SDS011;16488;52.396;10.696;2022-07-09T08:44:11;6.18;;;2.83;;
29550;SDS011;16488;52.396;10.696;2022-07-09T08:46:37;6.47;;;3.17;;
29550;SDS011;16488;52.396;10.696;2022-07-09T08:49:04;4.93;;;3.00;;
29550;SDS011;16488;52.396;10.696;2022-07-09T08:51:31;5.70;;;3.20;;
29550;SDS011;16488;52.396;10.696;2022-07-09T08:53:58;6.38;;;2.78;;
29550;SDS011;16488;52.396;10.696;2022-07-09T08:56:25;4.30;;;2.47;;
29550;SDS011;16488;52.396;10.696;2022-07-09T08:58:51;7.17;;;2.60;;
29550;SDS011;16488;52.396;10.696;2022-07-09T09:01:16;6.43;;;2.72;;
29550;SDS011;16488;52.396;10.696;2022-07-09T09:03:42;3.05;;;2.47;;
29550;SDS011;16488;52.396;10.696;2022-07-09T09:06:09;4.50;;;2.58;;
29550;SDS011;16488;52.396;10.696;2022-07-09T09:08:36;3.28;;;2.20;;
29550;SDS011;16488;52.396;10.696;2022-07-09T09:11:22;4.75;;;2.45;;
29550;SDS011;16488;52.396;10.696;2022-07-09T09:13:49;7.70;;;3.35;;
29550;SDS011;16488;52.396;10.696;2022-07-09T09:16:16;6.93;;;3.38;;
29550;SDS011;16488;52.396;10.696;2022-07-09T09:21:09;3.45;;;2.40;;
29550;SDS011;16488;52.396;10.696;2022-07-09T09:23:42;6.05;;;2.60;;
29550;SDS011;16488;52.396;10.696;2022-07-09T09:26:19;5.93;;;2.87;;
29550;SDS011;16488;52.396;10.696;2022-07-09T09:28:51;5.43;;;2.72;;
29550;SDS011;16488;52.396;10.696;2022-07-09T09:31:25;6.70;;;2.75;;
29550;SDS011;16488;52.396;10.696;2022-07-09T09:33:54;7.05;;;2.63;;
29550;SDS011;16488;52.396;10.696;2022-07-09T09:39:18;7.68;;;2.53;;
29550;SDS011;16488;52.396;10.696;2022-07-09T09:41:49;6.00;;;2.85;;
29550;SDS011;16488;52.396;10.696;2022-07-09T09:44:15;5.30;;;2.70;;
29550;SDS011;16488;52.396;10.696;2022-07-09T09:46:42;8.18;;;3.10;;
29550;SDS011;16488;52.396;10.696;2022-07-09T09:49:09;6.28;;;2.95;;
29550;SDS011;16488;52.396;10.696;2022-07-09T09:51:38;5.38;;;2.30;;
29550;SDS011;16488;52.396;10.696;2022-07-09T09:54:25;5.32;;;2.42;;
29550;SDS011;16488;52.396;10.696;2022-07-09T09:56:50;4.63;;;2.53;;
29550;SDS011;16488;52.396;10.696;2022-07-09T10:01:43;6.05;;;2.75;;
29550;SDS011;16488;52.396;10.696;2022-07-09T10:04:10;4.82;;;2.53;;
29550;SDS011;16488;52.396;10.696;2022-07-09T10:06:36;5.78;;;2.35;;
29550;SDS011;16488;52.396;10.696;2022-07-09T10:09:03;5.28;;;3.05;;
29550;SDS011;16488;52.396;10.696;2022-07-09T10:11:46;4.60;;;2.17;;
29550;SDS011;16488;52.396;10.696;2022-07-09T10:16:50;4.53;;;2.40;;
29550;SDS011;16488;52.396;10.696;2022-07-09T10:19:27;4.30;;;2.65;;
29550;SDS011;16488;52.396;10.696;2022-07-09T10:21:58;3.10;;;2.20;;
29550;SDS011;16488;52.396;10.696;2022-07-09T10:24:25;3.13;;;1.90;;
29550;SDS011;16488;52.396;10.696;2022-07-09T10:27:04;4.10;;;2.03;;
29550;SDS011;16488;52.396;10.696;2022-07-09T10:31:57;4.53;;;2.13;;
29550;SDS011;16488;52.396;10.696;2022-07-09T10:37:09;5.65;;;2.15;;
29550;SDS011;16488;52.396;10.696;2022-07-09T10:39:35;10.40;;;2.80;;
29550;SDS011;16488;52.396;10.696;2022-07-09T10:42:17;3.55;;;2.10;;
29550;SDS011;16488;52.396;10.696;2022-07-09T10:44:44;2.97;;;2.10;;
29550;SDS011;16488;52.396;10.696;2022-07-09T10:47:11;2.60;;;1.85;;
29550;SDS011;16488;52.396;10.696;2022-07-09T10:52:03;7.70;;;2.15;;
29550;SDS011;16488;52.396;10.696;2022-07-09T10:54:30;6.35;;;2.17;;
29550;SDS011;16488;52.396;10.696;2022-07-09T10:56:56;4.10;;;2.58;;
29550;SDS011;16488;52.396;10.696;2022-07-09T10:59:23;6.10;;;2.17;;
29550;SDS011;16488;52.396;10.696;2022-07-09T11:01:49;2.08;;;1.75;;
29550;SDS011;16488;52.396;10.696;2022-07-09T11:04:26;4.45;;;1.77;;
29550;SDS011;16488;52.396;10.696;2022-07-09T11:06:53;4.75;;;2.60;;
29550;SDS011;16488;52.396;10.696;2022-07-09T11:09:18;5.43;;;2.15;;
29550;SDS011;16488;52.396;10.696;2022-07-09T11:11:44;7.25;;;2.22;;
29550;SDS011;16488;52.396;10.696;2022-07-09T11:14:12;5.10;;;2.08;;
29550;SDS011;16488;52.396;10.696;2022-07-09T11:16:38;4.95;;;2.13;;
29550;SDS011;16488;52.396;10.696;2022-07-09T11:19:12;4.40;;;1.50;;
29550;SDS011;16488;52.396;10.696;2022-07-09T11:21:41;3.22;;;2.00;;
29550;SDS011;16488;52.396;10.696;2022-07-09T11:24:16;2.88;;;1.40;;
29550;SDS011;16488;52.396;10.696;2022-07-09T11:26:44;5.45;;;1.80;;
29550;SDS011;16488;52.396;10.696;2022-07-09T11:29:13;6.05;;;1.77;;
29550;SDS011;16488;52.396;10.696;2022-07-09T11:31:52;5.47;;;1.77;;
29550;SDS011;16488;52.396;10.696;2022-07-09T11:34:18;3.25;;;1.50;;
29550;SDS011;16488;52.396;10.696;2022-07-09T11:36:45;6.15;;;1.50;;
29550;SDS011;16488;52.396;10.696;2022-07-09T11:39:24;4.90;;;1.52;;
29550;SDS011;16488;52.396;10.696;2022-07-09T11:41:55;5.50;;;1.63;;
29550;SDS011;16488;52.396;10.696;2022-07-09T11:44:26;2.75;;;1.50;;
29550;SDS011;16488;52.396;10.696;2022-07-09T11:47:02;2.60;;;1.25;;
29550;SDS011;16488;52.396;10.696;2022-07-09T11:49:33;5.30;;;1.50;;
29550;SDS011;16488;52.396;10.696;2022-07-09T11:52:18;1.80;;;1.55;;
29550;SDS011;16488;52.396;10.696;2022-07-09T11:54:55;3.75;;;1.98;;
29550;SDS011;16488;52.396;10.696;2022-07-09T11:57:22;2.85;;;1.73;;
29550;SDS011;16488;52.396;10.696;2022-07-09T11:59:48;4.80;;;1.70;;
29550;SDS011;16488;52.396;10.696;2022-07-09T12:04:50;3.67;;;1.77;;
29550;SDS011;16488;52.396;10.696;2022-07-09T12:07:15;4.28;;;1.73;;
29550;SDS011;16488;52.396;10.696;2022-07-09T12:09:41;8.30;;;1.40;;
29550;SDS011;16488;52.396;10.696;2022-07-09T12:12:06;3.17;;;1.50;;
29550;SDS011;16488;52.396;10.696;2022-07-09T12:14:32;2.67;;;1.40;;
29550;SDS011;16488;52.396;10.696;2022-07-09T12:16:58;3.17;;;1.65;;
29550;SDS011;16488;52.396;10.696;2022-07-09T12:19:23;5.45;;;1.42;;
29550;SDS011;16488;52.396;10.696;2022-07-09T12:21:49;2.13;;;1.50;;
29550;SDS011;16488;52.396;10.696;2022-07-09T12:24:14;2.22;;;1.30;;
29550;SDS011;16488;52.396;10.696;2022-07-09T12:26:40;4.03;;;1.60;;
29550;SDS011;16488;52.396;10.696;2022-07-09T12:29:06;2.15;;;1.35;;
29550;SDS011;16488;52.396;10.696;2022-07-09T12:31:31;3.03;;;1.42;;
29550;SDS011;16488;52.396;10.696;2022-07-09T12:33:57;3.45;;;1.85;;
29550;SDS011;16488;52.396;10.696;2022-07-09T12:36:23;4.85;;;1.45;;
29550;SDS011;16488;52.396;10.696;2022-07-09T12:38:49;6.22;;;1.65;;
29550;SDS011;16488;52.396;10.696;2022-07-09T12:41:14;8.80;;;1.55;;
29550;SDS011;16488;52.396;10.696;2022-07-09T12:43:40;1.37;;;1.20;;
29550;SDS011;16488;52.396;10.696;2022-07-09T12:46:05;3.83;;;1.33;;
29550;SDS011;16488;52.396;10.696;2022-07-09T12:48:32;5.72;;;1.30;;
29550;SDS011;16488;52.396;10.696;2022-07-09T12:50:57;5.38;;;1.45;;
29550;SDS011;16488;52.396;10.696;2022-07-09T12:53:23;5.53;;;1.30;;
29550;SDS011;16488;52.396;10.696;2022-07-09T12:55:48;3.57;;;1.47;;
29550;SDS011;16488;52.396;10.696;2022-07-09T12:58:15;4.18;;;1.60;;
29550;SDS011;16488;52.396;10.696;2022-07-09T13:00:41;3.37;;;1.33;;
29550;SDS011;16488;52.396;10.696;2022-07-09T13:03:06;2.92;;;1.67;;
29550;SDS011;16488;52.396;10.696;2022-07-09T13:05:32;2.22;;;1.70;;
29550;SDS011;16488;52.396;10.696;2022-07-09T13:07:58;3.38;;;1.70;;
29550;SDS011;16488;52.396;10.696;2022-07-09T13:10:23;3.40;;;1.80;;
29550;SDS011;16488;52.396;10.696;2022-07-09T13:12:49;5.63;;;1.50;;
29550;SDS011;16488;52.396;10.696;2022-07-09T13:15:15;4.75;;;2.47;;
29550;SDS011;16488;52.396;10.696;2022-07-09T13:17:45;3.28;;;2.22;;
29550;SDS011;16488;52.396;10.696;2022-07-09T13:20:14;7.82;;;2.47;;
29550;SDS011;16488;52.396;10.696;2022-07-09T13:22:39;4.93;;;2.50;;
29550;SDS011;16488;52.396;10.696;2022-07-09T13:25:05;3.40;;;1.93;;
29550;SDS011;16488;52.396;10.696;2022-07-09T13:27:31;5.53;;;2.05;;
29550;SDS011;16488;52.396;10.696;2022-07-09T13:29:57;3.37;;;2.30;;
29550;SDS011;16488;52.396;10.696;2022-07-09T13:32:23;3.47;;;2.60;;
29550;SDS011;16488;52.396;10.696;2022-07-09T13:34:49;2.58;;;1.80;;
29550;SDS011;16488;52.396;10.696;2022-07-09T13:37:15;3.40;;;1.95;;
29550;SDS011;16488;52.396;10.696;2022-07-09T13:39:41;1.95;;;1.40;;
29550;SDS011;16488;52.396;10.696;2022-07-09T13:42:07;9.27;;;1.65;;
29550;SDS011;16488;52.396;10.696;2022-07-09T13:44:32;5.38;;;1.45;;
29550;SDS011;16488;52.396;10.696;2022-07-09T13:46:58;3.97;;;2.33;;
29550;SDS011;16488;52.396;10.696;2022-07-09T13:49:24;1.70;;;1.05;;
29550;SDS011;16488;52.396;10.696;2022-07-09T13:51:49;1.87;;;1.33;;
29550;SDS011;16488;52.396;10.696;2022-07-09T13:54:15;1.33;;;1.23;;
29550;SDS011;16488;52.396;10.696;2022-07-09T13:56:41;1.60;;;1.10;;
29550;SDS011;16488;52.396;10.696;2022-07-09T13:59:06;2.97;;;1.27;;
29550;SDS011;16488;52.396;10.696;2022-07-09T14:01:32;3.25;;;1.27;;
29550;SDS011;16488;52.396;10.696;2022-07-09T14:03:57;1.87;;;1.50;;
29550;SDS011;16488;52.396;10.696;2022-07-09T14:06:23;2.57;;;1.10;;
29550;SDS011;16488;52.396;10.696;2022-07-09T14:08:49;1.58;;;1.20;;
29550;SDS011;16488;52.396;10.696;2022-07-09T14:11:15;4.60;;;1.60;;
29550;SDS011;16488;52.396;10.696;2022-07-09T14:13:41;2.50;;;1.75;;
29550;SDS011;16488;52.396;10.696;2022-07-09T14:16:08;4.18;;;1.60;;
29550;SDS011;16488;52.396;10.696;2022-07-09T14:18:34;2.40;;;1.60;;
29550;SDS011;16488;52.396;10.696;2022-07-09T14:21:00;4.85;;;1.67;;
29550;SDS011;16488;52.396;10.696;2022-07-09T14:23:25;3.90;;;1.90;;
29550;SDS011;16488;52.396;10.696;2022-07-09T14:25:52;3.10;;;1.77;;
29550;SDS011;16488;52.396;10.696;2022-07-09T14:28:17;3.77;;;1.23;;
29550;SDS011;16488;52.396;10.696;2022-07-09T14:30:43;3.43;;;1.70;;
29550;SDS011;16488;52.396;10.696;2022-07-09T14:33:09;2.05;;;1.65;;
29550;SDS011;16488;52.396;10.696;2022-07-09T14:35:35;2.90;;;1.48;;
29550;SDS011;16488;52.396;10.696;2022-07-09T14:38:00;1.40;;;1.30;;
29550;SDS011;16488;52.396;10.696;2022-07-09T14:40:27;1.83;;;1.20;;
29550;SDS011;16488;52.396;10.696;2022-07-09T14:42:52;2.97;;;1.48;;
29550;SDS011;16488;52.396;10.696;2022-07-09T14:45:18;3.03;;;1.60;;
29550;SDS011;16488;52.396;10.696;2022-07-09T14:47:44;5.80;;;1.13;;
29550;SDS011;16488;52.396;10.696;2022-07-09T14:50:10;4.40;;;1.50;;
29550;SDS011;16488;52.396;10.696;2022-07-09T14:52:36;2.65;;;1.23;;
29550;SDS011;16488;52.396;10.696;2022-07-09T14:55:02;1.20;;;1.10;;